sensor_id;sensor_type;location;lat;lon;timestamp;temperature;humidity
17956;DHT22;27666;51.498;11.966;2023-04-01T00:01:34;10.80;99.90
17956;DHT22;27666;51.498;11.966;2023-04-01T00:04:22;10.80;99.90
17956;DHT22;27666;51.498;11.966;2023-04-01T00:07:08;10.80;99.90
17956;DHT22;27666;51.498;11.966;2023-04-01T00:09:55;10.80;99.90
17956;DHT22;27666;51.498;11.966;2023-04-01T00:12:42;10.80;99.90
17956;DHT22;27666;51.498;11.966;2023-04-01T00:15:29;10.80;99.90
17956;DHT22;27666;51.498;11.966;2023-04-01T00:18:16;10.80;99.90
17956;DHT22;27666;51.498;11.966;2023-04-01T00:21:04;10.80;99.90
17956;DHT22;27666;51.498;11.966;2023-04-01T00:23:51;10.80;99.90
17956;DHT22;27666;51.498;11.966;2023-04-01T00:26:38;10.70;99.90
17956;DHT22;27666;51.498;11.966;2023-04-01T00:29:24;10.80;99.90
17956;DHT22;27666;51.498;11.966;2023-04-01T00:32:14;10.70;99.90
17956;DHT22;27666;51.498;11.966;2023-04-01T00:35:01;10.80;99.90
17956;DHT22;27666;51.498;11.966;2023-04-01T00:37:49;10.80;99.90
17956;DHT22;27666;51.498;11.966;2023-04-01T00:40:38;10.70;99.90
17956;DHT22;27666;51.498;11.966;2023-04-01T00:43:25;10.80;99.90
17956;DHT22;27666;51.498;11.966;2023-04-01T00:46:14;10.70;99.90
17956;DHT22;27666;51.498;11.966;2023-04-01T00:49:00;10.70;99.90
17956;DHT22;27666;51.498;11.966;2023-04-01T00:51:51;10.70;99.90
17956;DHT22;27666;51.498;11.966;2023-04-01T00:54:41;10.70;99.90
17956;DHT22;27666;51.498;11.966;2023-04-01T00:57:32;10.70;99.90
17956;DHT22;27666;51.498;11.966;2023-04-01T01:00:21;10.70;99.90
17956;DHT22;27666;51.498;11.966;2023-04-01T01:03:07;10.70;99.90
17956;DHT22;27666;51.498;11.966;2023-04-01T01:06:11;10.70;99.90
17956;DHT22;27666;51.498;11.966;2023-04-01T01:09:18;10.80;99.90
17956;DHT22;27666;51.498;11.966;2023-04-01T01:12:14;10.80;99.90
17956;DHT22;27666;51.498;11.966;2023-04-01T01:15:09;10.80;99.90
17956;DHT22;27666;51.498;11.966;2023-04-01T01:18:02;10.70;99.90
17956;DHT22;27666;51.498;11.966;2023-04-01T01:21:12;10.70;99.90
17956;DHT22;27666;51.498;11.966;2023-04-01T01:24:26;10.70;99.90
17956;DHT22;27666;51.498;11.966;2023-04-01T01:27:16;10.60;99.90
17956;DHT22;27666;51.498;11.966;2023-04-01T01:30:20;10.50;99.90
17956;DHT22;27666;51.498;11.966;2023-04-01T01:33:24;10.50;99.90
17956;DHT22;27666;51.498;11.966;2023-04-01T01:36:18;10.40;99.90
17956;DHT22;27666;51.498;11.966;2023-04-01T01:39:08;10.50;99.90
17956;DHT22;27666;51.498;11.966;2023-04-01T01:41:57;10.50;99.90
17956;DHT22;27666;51.498;11.966;2023-04-01T01:44:47;10.50;99.90
17956;DHT22;27666;51.498;11.966;2023-04-01T01:47:36;10.60;99.90
17956;DHT22;27666;51.498;11.966;2023-04-01T01:50:24;10.50;99.90
17956;DHT22;27666;51.498;11.966;2023-04-01T01:53:13;10.50;99.90
17956;DHT22;27666;51.498;11.966;2023-04-01T01:56:00;10.60;99.90
17956;DHT22;27666;51.498;11.966;2023-04-01T01:58:49;10.60;99.90
17956;DHT22;27666;51.498;11.966;2023-04-01T02:01:40;10.60;99.90
17956;DHT22;27666;51.498;11.966;2023-04-01T02:04:28;10.60;99.90
17956;DHT22;27666;51.498;11.966;2023-04-01T02:07:18;10.50;99.90
17956;DHT22;27666;51.498;11.966;2023-04-01T02:10:08;10.60;99.90
17956;DHT22;27666;51.498;11.966;2023-04-01T02:12:59;10.50;99.90
17956;DHT22;27666;51.498;11.966;2023-04-01T02:15:49;10.50;99.90
17956;DHT22;27666;51.498;11.966;2023-04-01T02:18:38;10.60;99.90
17956;DHT22;27666;51.498;11.966;2023-04-01T02:21:29;10.60;99.90
17956;DHT22;27666;51.498;11.966;2023-04-01T02:24:18;10.70;99.90
17956;DHT22;27666;51.498;11.966;2023-04-01T02:27:10;10.70;99.90
17956;DHT22;27666;51.498;11.966;2023-04-01T02:29:57;10.70;99.90
17956;DHT22;27666;51.498;11.966;2023-04-01T02:32:45;10.70;99.90
17956;DHT22;27666;51.498;11.966;2023-04-01T02:35:34;10.70;99.90
17956;DHT22;27666;51.498;11.966;2023-04-01T02:38:22;10.70;99.90
17956;DHT22;27666;51.498;11.966;2023-04-01T02:41:08;10.70;99.90
17956;DHT22;27666;51.498;11.966;2023-04-01T02:43:56;10.70;99.90
17956;DHT22;27666;51.498;11.966;2023-04-01T02:46:44;10.70;99.90
17956;DHT22;27666;51.498;11.966;2023-04-01T02:49:31;10.70;99.90
17956;DHT22;27666;51.498;11.966;2023-04-01T02:52:17;10.70;99.90
17956;DHT22;27666;51.498;11.966;2023-04-01T02:55:04;10.80;99.90
17956;DHT22;27666;51.498;11.966;2023-04-01T02:57:51;10.80;99.90
17956;DHT22;27666;51.498;11.966;2023-04-01T03:00:39;10.80;99.90
17956;DHT22;27666;51.498;11.966;2023-04-01T03:03:26;10.80;99.90
17956;DHT22;27666;51.498;11.966;2023-04-01T03:06:14;10.80;99.90
17956;DHT22;27666;51.498;11.966;2023-04-01T03:09:01;10.80;99.90
17956;DHT22;27666;51.498;11.966;2023-04-01T03:11:48;10.90;99.90
17956;DHT22;27666;51.498;11.966;2023-04-01T03:14:35;10.80;99.90
17956;DHT22;27666;51.498;11.966;2023-04-01T03:17:22;10.70;99.90
17956;DHT22;27666;51.498;11.966;2023-04-01T03:20:10;10.70;99.90
17956;DHT22;27666;51.498;11.966;2023-04-01T03:22:56;10.70;99.90
17956;DHT22;27666;51.498;11.966;2023-04-01T03:25:43;10.60;99.90
17956;DHT22;27666;51.498;11.966;2023-04-01T03:28:29;10.60;99.90
17956;DHT22;27666;51.498;11.966;2023-04-01T03:31:16;10.60;99.90
17956;DHT22;27666;51.498;11.966;2023-04-01T03:34:04;10.60;99.90
17956;DHT22;27666;51.498;11.966;2023-04-01T03:36:51;10.60;99.90
17956;DHT22;27666;51.498;11.966;2023-04-01T03:39:38;10.60;99.90
17956;DHT22;27666;51.498;11.966;2023-04-01T03:42:27;10.60;99.90
17956;DHT22;27666;51.498;11.966;2023-04-01T03:45:13;10.60;99.90
17956;DHT22;27666;51.498;11.966;2023-04-01T03:48:01;10.60;99.90
17956;DHT22;27666;51.498;11.966;2023-04-01T03:50:48;10.50;99.90
17956;DHT22;27666;51.498;11.966;2023-04-01T03:53:35;10.50;99.90
17956;DHT22;27666;51.498;11.966;2023-04-01T03:56:22;10.50;99.90
17956;DHT22;27666;51.498;11.966;2023-04-01T03:59:08;10.50;99.90
17956;DHT22;27666;51.498;11.966;2023-04-01T04:01:55;10.60;99.90
17956;DHT22;27666;51.498;11.966;2023-04-01T04:04:42;10.50;99.90
17956;DHT22;27666;51.498;11.966;2023-04-01T04:07:30;10.50;99.90
17956;DHT22;27666;51.498;11.966;2023-04-01T04:10:16;10.50;99.90
17956;DHT22;27666;51.498;11.966;2023-04-01T04:13:03;10.50;99.90
17956;DHT22;27666;51.498;11.966;2023-04-01T04:15:49;10.50;99.90
17956;DHT22;27666;51.498;11.966;2023-04-01T04:18:36;10.50;99.90
17956;DHT22;27666;51.498;11.966;2023-04-01T04:21:23;10.50;99.90
17956;DHT22;27666;51.498;11.966;2023-04-01T04:24:11;10.50;99.90
17956;DHT22;27666;51.498;11.966;2023-04-01T04:26:57;10.50;99.90
17956;DHT22;27666;51.498;11.966;2023-04-01T04:29:44;10.50;99.90
17956;DHT22;27666;51.498;11.966;2023-04-01T04:32:30;10.40;99.90
17956;DHT22;27666;51.498;11.966;2023-04-01T04:35:17;10.50;99.90
17956;DHT22;27666;51.498;11.966;2023-04-01T04:38:03;10.50;99.90
17956;DHT22;27666;51.498;11.966;2023-04-01T04:40:51;10.50;99.90
17956;DHT22;27666;51.498;11.966;2023-04-01T04:43:38;10.50;99.90
17956;DHT22;27666;51.498;11.966;2023-04-01T04:46:25;10.50;99.90
17956;DHT22;27666;51.498;11.966;2023-04-01T04:49:11;10.50;99.90
17956;DHT22;27666;51.498;11.966;2023-04-01T04:51:58;10.50;99.90
17956;DHT22;27666;51.498;11.966;2023-04-01T04:54:44;10.50;99.90
17956;DHT22;27666;51.498;11.966;2023-04-01T04:57:32;10.40;99.90
17956;DHT22;27666;51.498;11.966;2023-04-01T05:00:18;10.40;99.90
17956;DHT22;27666;51.498;11.966;2023-04-01T05:03:05;10.40;99.90
17956;DHT22;27666;51.498;11.966;2023-04-01T05:05:53;10.50;99.90
17956;DHT22;27666;51.498;11.966;2023-04-01T05:08:40;10.50;99.90
17956;DHT22;27666;51.498;11.966;2023-04-01T05:11:28;10.50;99.90
17956;DHT22;27666;51.498;11.966;2023-04-01T05:14:16;10.60;99.90
17956;DHT22;27666;51.498;11.966;2023-04-01T05:17:02;10.50;99.90
17956;DHT22;27666;51.498;11.966;2023-04-01T05:19:49;10.50;99.90
17956;DHT22;27666;51.498;11.966;2023-04-01T05:22:36;10.50;99.90
17956;DHT22;27666;51.498;11.966;2023-04-01T05:25:22;10.50;99.90
17956;DHT22;27666;51.498;11.966;2023-04-01T05:28:09;10.50;99.90
17956;DHT22;27666;51.498;11.966;2023-04-01T05:30:58;10.50;99.90
17956;DHT22;27666;51.498;11.966;2023-04-01T05:33:45;10.60;99.90
17956;DHT22;27666;51.498;11.966;2023-04-01T05:36:32;10.60;99.90
17956;DHT22;27666;51.498;11.966;2023-04-01T05:39:19;10.70;99.90
17956;DHT22;27666;51.498;11.966;2023-04-01T05:42:06;10.70;99.90
17956;DHT22;27666;51.498;11.966;2023-04-01T05:44:53;10.70;99.90
17956;DHT22;27666;51.498;11.966;2023-04-01T05:47:42;10.70;99.90
17956;DHT22;27666;51.498;11.966;2023-04-01T05:50:29;10.70;99.90
17956;DHT22;27666;51.498;11.966;2023-04-01T05:53:15;10.70;99.90
17956;DHT22;27666;51.498;11.966;2023-04-01T05:56:04;10.80;99.90
17956;DHT22;27666;51.498;11.966;2023-04-01T05:58:52;10.90;99.90
17956;DHT22;27666;51.498;11.966;2023-04-01T06:01:39;11.00;99.90
17956;DHT22;27666;51.498;11.966;2023-04-01T06:04:31;11.00;99.90
17956;DHT22;27666;51.498;11.966;2023-04-01T06:07:19;11.00;99.90
17956;DHT22;27666;51.498;11.966;2023-04-01T06:10:12;11.00;99.90
17956;DHT22;27666;51.498;11.966;2023-04-01T06:13:05;11.00;99.90
17956;DHT22;27666;51.498;11.966;2023-04-01T06:15:58;11.10;99.90
17956;DHT22;27666;51.498;11.966;2023-04-01T06:19:06;11.20;99.90
17956;DHT22;27666;51.498;11.966;2023-04-01T06:25:25;11.50;99.90
17956;DHT22;27666;51.498;11.966;2023-04-01T06:28:46;11.60;99.90
17956;DHT22;27666;51.498;11.966;2023-04-01T06:31:46;11.70;99.90
17956;DHT22;27666;51.498;11.966;2023-04-01T06:34:52;11.90;99.90
17956;DHT22;27666;51.498;11.966;2023-04-01T06:37:53;12.20;99.90
17956;DHT22;27666;51.498;11.966;2023-04-01T06:40:59;12.50;99.90
17956;DHT22;27666;51.498;11.966;2023-04-01T06:43:54;12.70;99.90
17956;DHT22;27666;51.498;11.966;2023-04-01T06:46:46;12.80;99.90
17956;DHT22;27666;51.498;11.966;2023-04-01T06:49:41;12.70;99.90
17956;DHT22;27666;51.498;11.966;2023-04-01T06:52:38;12.60;99.90
17956;DHT22;27666;51.498;11.966;2023-04-01T06:55:34;12.80;99.90
17956;DHT22;27666;51.498;11.966;2023-04-01T06:58:24;12.80;99.90
17956;DHT22;27666;51.498;11.966;2023-04-01T07:01:14;12.80;99.90
17956;DHT22;27666;51.498;11.966;2023-04-01T07:04:06;12.70;99.90
17956;DHT22;27666;51.498;11.966;2023-04-01T07:06:58;12.80;99.90
17956;DHT22;27666;51.498;11.966;2023-04-01T07:09:52;12.70;99.90
17956;DHT22;27666;51.498;11.966;2023-04-01T07:12:44;12.70;99.90
17956;DHT22;27666;51.498;11.966;2023-04-01T07:15:36;12.60;99.90
17956;DHT22;27666;51.498;11.966;2023-04-01T07:18:29;12.70;99.90
17956;DHT22;27666;51.498;11.966;2023-04-01T07:21:23;12.80;99.90
17956;DHT22;27666;51.498;11.966;2023-04-01T07:24:15;12.90;99.90
17956;DHT22;27666;51.498;11.966;2023-04-01T07:27:08;12.90;99.90
17956;DHT22;27666;51.498;11.966;2023-04-01T07:29:57;13.00;99.90
17956;DHT22;27666;51.498;11.966;2023-04-01T07:32:47;13.00;99.90
17956;DHT22;27666;51.498;11.966;2023-04-01T07:35:39;13.10;99.90
17956;DHT22;27666;51.498;11.966;2023-04-01T07:38:35;13.20;99.90
17956;DHT22;27666;51.498;11.966;2023-04-01T07:41:31;13.30;99.90
17956;DHT22;27666;51.498;11.966;2023-04-01T07:44:26;13.40;99.90
17956;DHT22;27666;51.498;11.966;2023-04-01T07:47:34;13.40;99.90
17956;DHT22;27666;51.498;11.966;2023-04-01T07:50:28;13.40;99.90
17956;DHT22;27666;51.498;11.966;2023-04-01T07:53:18;13.50;99.90
17956;DHT22;27666;51.498;11.966;2023-04-01T07:56:10;13.60;99.90
17956;DHT22;27666;51.498;11.966;2023-04-01T07:59:02;13.70;99.90
17956;DHT22;27666;51.498;11.966;2023-04-01T08:01:53;13.70;99.90
17956;DHT22;27666;51.498;11.966;2023-04-01T08:04:52;13.60;99.90
17956;DHT22;27666;51.498;11.966;2023-04-01T08:07:47;13.70;99.90
17956;DHT22;27666;51.498;11.966;2023-04-01T08:10:45;13.70;99.90
17956;DHT22;27666;51.498;11.966;2023-04-01T08:13:38;13.70;99.90
17956;DHT22;27666;51.498;11.966;2023-04-01T08:16:33;13.70;99.90
17956;DHT22;27666;51.498;11.966;2023-04-01T08:19:30;13.60;99.90
17956;DHT22;27666;51.498;11.966;2023-04-01T08:22:23;13.60;99.90
17956;DHT22;27666;51.498;11.966;2023-04-01T08:25:17;13.60;99.90
17956;DHT22;27666;51.498;11.966;2023-04-01T08:28:11;13.70;99.90
17956;DHT22;27666;51.498;11.966;2023-04-01T08:31:04;13.80;99.90
17956;DHT22;27666;51.498;11.966;2023-04-01T08:33:54;13.70;99.90
17956;DHT22;27666;51.498;11.966;2023-04-01T08:36:44;13.80;99.90
17956;DHT22;27666;51.498;11.966;2023-04-01T08:39:35;13.90;99.90
17956;DHT22;27666;51.498;11.966;2023-04-01T08:42:36;14.00;99.90
17956;DHT22;27666;51.498;11.966;2023-04-01T08:45:45;14.00;99.90
17956;DHT22;27666;51.498;11.966;2023-04-01T08:48:52;14.00;99.90
17956;DHT22;27666;51.498;11.966;2023-04-01T08:52:02;14.00;99.90
17956;DHT22;27666;51.498;11.966;2023-04-01T08:55:19;13.90;99.90
17956;DHT22;27666;51.498;11.966;2023-04-01T08:58:35;14.00;99.90
17956;DHT22;27666;51.498;11.966;2023-04-01T09:01:58;14.10;99.90
17956;DHT22;27666;51.498;11.966;2023-04-01T09:05:07;14.20;99.90
17956;DHT22;27666;51.498;11.966;2023-04-01T09:08:16;14.20;99.90
17956;DHT22;27666;51.498;11.966;2023-04-01T09:11:10;14.10;99.90
17956;DHT22;27666;51.498;11.966;2023-04-01T09:14:23;14.20;99.90
17956;DHT22;27666;51.498;11.966;2023-04-01T09:17:35;14.40;99.90
17956;DHT22;27666;51.498;11.966;2023-04-01T09:20:39;14.30;99.90
17956;DHT22;27666;51.498;11.966;2023-04-01T09:23:43;14.50;99.90
17956;DHT22;27666;51.498;11.966;2023-04-01T09:26:59;14.60;99.90
17956;DHT22;27666;51.498;11.966;2023-04-01T09:33:37;14.70;99.90
17956;DHT22;27666;51.498;11.966;2023-04-01T09:36:43;14.60;99.90
17956;DHT22;27666;51.498;11.966;2023-04-01T09:39:38;14.70;99.90
17956;DHT22;27666;51.498;11.966;2023-04-01T09:42:43;14.80;99.90
17956;DHT22;27666;51.498;11.966;2023-04-01T09:45:53;14.70;99.90
17956;DHT22;27666;51.498;11.966;2023-04-01T09:52:10;14.90;99.90
17956;DHT22;27666;51.498;11.966;2023-04-01T09:55:21;14.80;99.90
17956;DHT22;27666;51.498;11.966;2023-04-01T09:58:40;14.70;99.90
17956;DHT22;27666;51.498;11.966;2023-04-01T10:01:42;14.60;99.90
17956;DHT22;27666;51.498;11.966;2023-04-01T10:04:59;14.40;99.90
17956;DHT22;27666;51.498;11.966;2023-04-01T10:11:51;14.40;99.90
17956;DHT22;27666;51.498;11.966;2023-04-01T10:15:34;14.40;99.90
17956;DHT22;27666;51.498;11.966;2023-04-01T10:21:59;14.40;99.90
17956;DHT22;27666;51.498;11.966;2023-04-01T10:35:03;14.60;99.90
17956;DHT22;27666;51.498;11.966;2023-04-01T10:38:18;14.70;99.90
17956;DHT22;27666;51.498;11.966;2023-04-01T10:41:28;14.90;99.90
17956;DHT22;27666;51.498;11.966;2023-04-01T10:44:45;15.20;99.90
17956;DHT22;27666;51.498;11.966;2023-04-01T10:48:02;15.60;99.90
17956;DHT22;27666;51.498;11.966;2023-04-01T10:51:25;15.60;99.90
17956;DHT22;27666;51.498;11.966;2023-04-01T10:54:36;15.70;99.90
17956;DHT22;27666;51.498;11.966;2023-04-01T10:58:04;15.70;99.90
17956;DHT22;27666;51.498;11.966;2023-04-01T11:01:28;15.40;99.90
17956;DHT22;27666;51.498;11.966;2023-04-01T11:05:01;14.90;99.90
17956;DHT22;27666;51.498;11.966;2023-04-01T11:11:54;14.50;99.90
17956;DHT22;27666;51.498;11.966;2023-04-01T11:15:23;14.50;99.90
17956;DHT22;27666;51.498;11.966;2023-04-01T11:18:58;14.70;99.90
17956;DHT22;27666;51.498;11.966;2023-04-01T11:22:38;14.90;99.90
17956;DHT22;27666;51.498;11.966;2023-04-01T11:25:50;14.90;99.90
17956;DHT22;27666;51.498;11.966;2023-04-01T11:29:00;15.00;99.90
17956;DHT22;27666;51.498;11.966;2023-04-01T11:31:55;15.20;99.90
17956;DHT22;27666;51.498;11.966;2023-04-01T11:34:56;15.50;99.90
17956;DHT22;27666;51.498;11.966;2023-04-01T11:37:50;15.60;99.90
17956;DHT22;27666;51.498;11.966;2023-04-01T11:40:46;15.70;99.90
17956;DHT22;27666;51.498;11.966;2023-04-01T11:43:38;15.80;99.90
17956;DHT22;27666;51.498;11.966;2023-04-01T11:46:33;15.70;99.90
17956;DHT22;27666;51.498;11.966;2023-04-01T11:49:35;15.70;99.90
17956;DHT22;27666;51.498;11.966;2023-04-01T11:52:47;15.90;99.90
17956;DHT22;27666;51.498;11.966;2023-04-01T11:55:50;15.70;99.90
17956;DHT22;27666;51.498;11.966;2023-04-01T11:59:08;15.50;99.90
17956;DHT22;27666;51.498;11.966;2023-04-01T12:02:05;15.70;99.90
17956;DHT22;27666;51.498;11.966;2023-04-01T12:05:08;15.70;99.90
17956;DHT22;27666;51.498;11.966;2023-04-01T12:08:11;15.60;99.90
17956;DHT22;27666;51.498;11.966;2023-04-01T12:11:05;15.50;99.90
17956;DHT22;27666;51.498;11.966;2023-04-01T12:13:59;15.50;99.90
17956;DHT22;27666;51.498;11.966;2023-04-01T12:16:57;15.40;99.90
17956;DHT22;27666;51.498;11.966;2023-04-01T12:19:50;15.50;99.90
17956;DHT22;27666;51.498;11.966;2023-04-01T12:22:46;15.70;99.90
17956;DHT22;27666;51.498;11.966;2023-04-01T12:26:00;15.50;99.90
17956;DHT22;27666;51.498;11.966;2023-04-01T12:29:04;15.30;99.90
17956;DHT22;27666;51.498;11.966;2023-04-01T12:31:59;15.10;99.90
17956;DHT22;27666;51.498;11.966;2023-04-01T12:35:05;15.00;99.90
17956;DHT22;27666;51.498;11.966;2023-04-01T12:38:08;15.00;99.90
17956;DHT22;27666;51.498;11.966;2023-04-01T12:41:09;15.10;99.90
17956;DHT22;27666;51.498;11.966;2023-04-01T12:44:19;15.00;99.90
17956;DHT22;27666;51.498;11.966;2023-04-01T12:47:18;14.90;99.90
17956;DHT22;27666;51.498;11.966;2023-04-01T12:50:29;14.80;99.90
17956;DHT22;27666;51.498;11.966;2023-04-01T12:53:37;14.90;99.90
17956;DHT22;27666;51.498;11.966;2023-04-01T12:56:41;14.80;99.90
17956;DHT22;27666;51.498;11.966;2023-04-01T12:59:50;14.80;99.90
17956;DHT22;27666;51.498;11.966;2023-04-01T13:02:56;14.80;99.90
17956;DHT22;27666;51.498;11.966;2023-04-01T13:09:15;14.80;99.90
17956;DHT22;27666;51.498;11.966;2023-04-01T13:12:27;14.90;99.90
17956;DHT22;27666;51.498;11.966;2023-04-01T13:15:25;14.90;99.90
17956;DHT22;27666;51.498;11.966;2023-04-01T13:18:19;14.90;99.90
17956;DHT22;27666;51.498;11.966;2023-04-01T13:21:12;14.80;99.90
17956;DHT22;27666;51.498;11.966;2023-04-01T13:24:08;14.70;99.90
17956;DHT22;27666;51.498;11.966;2023-04-01T13:27:04;14.80;99.90
17956;DHT22;27666;51.498;11.966;2023-04-01T13:30:05;14.50;99.90
17956;DHT22;27666;51.498;11.966;2023-04-01T13:33:04;14.40;99.90
17956;DHT22;27666;51.498;11.966;2023-04-01T13:36:07;14.20;99.90
17956;DHT22;27666;51.498;11.966;2023-04-01T13:39:06;14.20;99.90
17956;DHT22;27666;51.498;11.966;2023-04-01T13:42:06;14.00;99.90
17956;DHT22;27666;51.498;11.966;2023-04-01T13:44:59;13.90;99.90
17956;DHT22;27666;51.498;11.966;2023-04-01T13:48:22;13.90;99.90
17956;DHT22;27666;51.498;11.966;2023-04-01T13:51:21;13.80;99.90
17956;DHT22;27666;51.498;11.966;2023-04-01T13:57:34;13.80;99.90
17956;DHT22;27666;51.498;11.966;2023-04-01T14:00:38;13.90;99.90
17956;DHT22;27666;51.498;11.966;2023-04-01T14:03:37;14.10;99.90
17956;DHT22;27666;51.498;11.966;2023-04-01T14:06:35;14.10;99.90
17956;DHT22;27666;51.498;11.966;2023-04-01T14:09:52;14.00;99.90
17956;DHT22;27666;51.498;11.966;2023-04-01T14:12:47;14.00;99.90
17956;DHT22;27666;51.498;11.966;2023-04-01T14:15:59;14.00;99.90
17956;DHT22;27666;51.498;11.966;2023-04-01T14:19:08;14.00;99.90
17956;DHT22;27666;51.498;11.966;2023-04-01T14:22:05;13.90;99.90
17956;DHT22;27666;51.498;11.966;2023-04-01T14:25:23;13.90;99.90
17956;DHT22;27666;51.498;11.966;2023-04-01T14:28:26;13.80;99.90
17956;DHT22;27666;51.498;11.966;2023-04-01T14:31:38;13.70;99.90
17956;DHT22;27666;51.498;11.966;2023-04-01T14:34:38;13.60;99.90
17956;DHT22;27666;51.498;11.966;2023-04-01T14:37:53;13.40;99.90
17956;DHT22;27666;51.498;11.966;2023-04-01T14:40:54;13.20;99.90
17956;DHT22;27666;51.498;11.966;2023-04-01T14:47:44;12.90;99.90
17956;DHT22;27666;51.498;11.966;2023-04-01T14:50:41;12.90;99.90
17956;DHT22;27666;51.498;11.966;2023-04-01T14:53:33;12.80;99.90
17956;DHT22;27666;51.498;11.966;2023-04-01T14:56:37;12.80;99.90
17956;DHT22;27666;51.498;11.966;2023-04-01T14:59:29;12.80;99.90
17956;DHT22;27666;51.498;11.966;2023-04-01T15:02:33;12.70;99.90
17956;DHT22;27666;51.498;11.966;2023-04-01T15:05:32;12.70;99.90
17956;DHT22;27666;51.498;11.966;2023-04-01T15:08:26;12.60;99.90
17956;DHT22;27666;51.498;11.966;2023-04-01T15:11:43;12.50;99.90
17956;DHT22;27666;51.498;11.966;2023-04-01T15:14:45;12.50;99.90
17956;DHT22;27666;51.498;11.966;2023-04-01T15:17:43;12.50;99.90
17956;DHT22;27666;51.498;11.966;2023-04-01T15:24:04;12.50;99.90
17956;DHT22;27666;51.498;11.966;2023-04-01T15:27:13;12.40;99.90
17956;DHT22;27666;51.498;11.966;2023-04-01T15:30:28;12.40;99.90
17956;DHT22;27666;51.498;11.966;2023-04-01T15:33:43;12.50;99.90
17956;DHT22;27666;51.498;11.966;2023-04-01T15:36:38;12.40;99.90
17956;DHT22;27666;51.498;11.966;2023-04-01T15:39:37;12.50;99.90
17956;DHT22;27666;51.498;11.966;2023-04-01T15:42:39;12.50;99.90
17956;DHT22;27666;51.498;11.966;2023-04-01T15:45:39;12.50;99.90
17956;DHT22;27666;51.498;11.966;2023-04-01T15:48:40;12.50;99.90
17956;DHT22;27666;51.498;11.966;2023-04-01T15:51:54;12.50;99.90
17956;DHT22;27666;51.498;11.966;2023-04-01T15:55:13;12.60;99.90
17956;DHT22;27666;51.498;11.966;2023-04-01T15:58:22;12.50;99.90
17956;DHT22;27666;51.498;11.966;2023-04-01T16:01:21;12.50;99.90
17956;DHT22;27666;51.498;11.966;2023-04-01T16:04:31;12.40;99.90
17956;DHT22;27666;51.498;11.966;2023-04-01T16:07:38;12.20;99.90
17956;DHT22;27666;51.498;11.966;2023-04-01T16:10:42;12.20;99.90
17956;DHT22;27666;51.498;11.966;2023-04-01T16:13:42;12.20;99.90
17956;DHT22;27666;51.498;11.966;2023-04-01T16:16:50;12.10;99.90
17956;DHT22;27666;51.498;11.966;2023-04-01T16:19:51;12.10;99.90
17956;DHT22;27666;51.498;11.966;2023-04-01T16:22:40;12.10;99.90
17956;DHT22;27666;51.498;11.966;2023-04-01T16:25:36;12.00;99.90
17956;DHT22;27666;51.498;11.966;2023-04-01T16:28:30;11.90;99.90
17956;DHT22;27666;51.498;11.966;2023-04-01T16:31:30;11.70;99.90
17956;DHT22;27666;51.498;11.966;2023-04-01T16:34:20;11.70;99.90
17956;DHT22;27666;51.498;11.966;2023-04-01T16:37:10;11.60;99.90
17956;DHT22;27666;51.498;11.966;2023-04-01T16:40:11;11.60;99.90
17956;DHT22;27666;51.498;11.966;2023-04-01T16:43:10;11.60;99.90
17956;DHT22;27666;51.498;11.966;2023-04-01T16:46:15;11.60;99.90
17956;DHT22;27666;51.498;11.966;2023-04-01T16:49:25;11.50;99.90
17956;DHT22;27666;51.498;11.966;2023-04-01T16:52:17;11.60;99.90
17956;DHT22;27666;51.498;11.966;2023-04-01T16:55:14;11.60;99.90
17956;DHT22;27666;51.498;11.966;2023-04-01T16:58:02;11.70;99.90
17956;DHT22;27666;51.498;11.966;2023-04-01T17:00:53;11.60;99.90
17956;DHT22;27666;51.498;11.966;2023-04-01T17:03:44;11.60;99.90
17956;DHT22;27666;51.498;11.966;2023-04-01T17:06:36;11.50;99.90
17956;DHT22;27666;51.498;11.966;2023-04-01T17:09:45;11.50;99.90
17956;DHT22;27666;51.498;11.966;2023-04-01T17:12:39;11.40;99.90
17956;DHT22;27666;51.498;11.966;2023-04-01T17:15:38;11.40;99.90
17956;DHT22;27666;51.498;11.966;2023-04-01T17:18:37;11.40;99.90
17956;DHT22;27666;51.498;11.966;2023-04-01T17:21:35;11.40;99.90
17956;DHT22;27666;51.498;11.966;2023-04-01T17:24:31;11.30;99.90
17956;DHT22;27666;51.498;11.966;2023-04-01T17:27:31;11.30;99.90
17956;DHT22;27666;51.498;11.966;2023-04-01T17:30:25;11.30;99.90
17956;DHT22;27666;51.498;11.966;2023-04-01T17:33:39;11.30;99.90
17956;DHT22;27666;51.498;11.966;2023-04-01T17:36:47;11.30;99.90
17956;DHT22;27666;51.498;11.966;2023-04-01T17:39:44;11.30;99.90
17956;DHT22;27666;51.498;11.966;2023-04-01T17:42:38;11.20;99.90
17956;DHT22;27666;51.498;11.966;2023-04-01T17:45:31;11.20;99.90
17956;DHT22;27666;51.498;11.966;2023-04-01T17:48:30;11.10;99.90
17956;DHT22;27666;51.498;11.966;2023-04-01T17:51:30;11.10;99.90
17956;DHT22;27666;51.498;11.966;2023-04-01T17:54:26;11.00;99.90
17956;DHT22;27666;51.498;11.966;2023-04-01T17:57:39;10.90;99.90
17956;DHT22;27666;51.498;11.966;2023-04-01T18:00:36;10.70;99.90
17956;DHT22;27666;51.498;11.966;2023-04-01T18:10:25;10.30;99.90
17956;DHT22;27666;51.498;11.966;2023-04-01T18:13:29;10.30;99.90
17956;DHT22;27666;51.498;11.966;2023-04-01T18:16:34;10.30;99.90
17956;DHT22;27666;51.498;11.966;2023-04-01T18:19:32;10.20;99.90
17956;DHT22;27666;51.498;11.966;2023-04-01T18:22:28;10.20;99.90
17956;DHT22;27666;51.498;11.966;2023-04-01T18:25:21;10.20;99.90
17956;DHT22;27666;51.498;11.966;2023-04-01T18:28:32;10.10;99.90
17956;DHT22;27666;51.498;11.966;2023-04-01T18:31:23;9.90;99.90
17956;DHT22;27666;51.498;11.966;2023-04-01T18:34:16;9.70;99.90
17956;DHT22;27666;51.498;11.966;2023-04-01T18:37:18;9.60;99.90
17956;DHT22;27666;51.498;11.966;2023-04-01T18:40:15;9.40;99.90
17956;DHT22;27666;51.498;11.966;2023-04-01T18:43:12;9.30;99.90
17956;DHT22;27666;51.498;11.966;2023-04-01T18:46:05;9.40;99.90
17956;DHT22;27666;51.498;11.966;2023-04-01T18:49:02;9.30;99.90
17956;DHT22;27666;51.498;11.966;2023-04-01T18:51:55;9.30;99.90
17956;DHT22;27666;51.498;11.966;2023-04-01T18:54:46;9.30;99.90
17956;DHT22;27666;51.498;11.966;2023-04-01T18:57:41;9.20;99.90
17956;DHT22;27666;51.498;11.966;2023-04-01T19:00:36;9.10;99.90
17956;DHT22;27666;51.498;11.966;2023-04-01T19:03:31;9.10;99.90
17956;DHT22;27666;51.498;11.966;2023-04-01T19:06:26;9.00;99.90
17956;DHT22;27666;51.498;11.966;2023-04-01T19:09:23;9.00;99.90
17956;DHT22;27666;51.498;11.966;2023-04-01T19:15:37;8.80;99.90
17956;DHT22;27666;51.498;11.966;2023-04-01T19:18:42;8.70;99.90